createdAt,value
2022-08-05T00:01:27.718Z,100585.00
2022-08-05T00:06:33.318Z,100589.40
2022-08-05T00:11:48.469Z,100575.40
2022-08-05T00:16:53.954Z,100563.00
2022-08-05T00:21:57.732Z,100558.60
2022-08-05T00:27:04.672Z,100553.00
2022-08-05T00:32:15.446Z,100550.40
2022-08-05T00:37:19.153Z,100543.80
2022-08-05T00:42:40.252Z,100544.40
2022-08-05T00:47:57.247Z,100540.00
2022-08-05T00:53:09.860Z,100543.40
2022-08-05T00:58:30.600Z,100536.40
2022-08-05T01:03:34.187Z,100532.20
2022-08-05T01:08:43.218Z,100529.00
2022-08-05T01:14:08.574Z,100528.00
2022-08-05T01:19:36.664Z,100527.40
2022-08-05T01:25:13.626Z,100531.20
2022-08-05T01:30:19.050Z,100526.60
2022-08-05T01:35:50.886Z,100520.80
2022-08-05T01:40:59.644Z,100518.00
2022-08-05T01:46:07.297Z,100516.00
2022-08-05T01:51:20.974Z,100512.40
2022-08-05T01:58:11.777Z,100509.40
2022-08-05T02:01:57.785Z,100502.60
2022-08-05T02:07:03.492Z,100500.40
2022-08-05T02:12:18.762Z,100500.40
2022-08-05T02:18:31.653Z,100496.40
2022-08-05T02:23:05.858Z,100501.00
2022-08-05T02:28:14.680Z,100494.80
2022-08-05T02:33:24.306Z,100492.80
2022-08-05T02:38:43.286Z,100487.00
2022-08-05T02:44:06.392Z,100491.00
2022-08-05T02:49:15.611Z,100484.80
2022-08-05T02:54:34.856Z,100483.20
2022-08-05T02:59:50.747Z,100476.40
2022-08-05T03:04:58.164Z,100468.20
2022-08-05T03:10:01.348Z,100468.00
2022-08-05T03:15:09.717Z,100466.00
2022-08-05T03:20:15.620Z,100467.60
2022-08-05T03:25:59.714Z,100465.20
2022-08-05T03:30:48.519Z,100469.00
2022-08-05T03:35:52.014Z,100465.20
2022-08-05T03:40:55.662Z,100466.40
2022-08-05T03:46:01.703Z,100467.40
2022-08-05T03:52:37.867Z,100471.40
2022-08-05T03:56:47.971Z,100470.60
2022-08-05T04:01:56.728Z,100468.60
2022-08-05T04:07:03.236Z,100474.00
2022-08-05T04:12:23.461Z,100478.00
2022-08-05T04:17:36.415Z,100478.60
2022-08-05T04:22:51.017Z,100469.60
2022-08-05T04:27:57.188Z,100472.60
2022-08-05T04:33:02.253Z,100471.80
2022-08-05T04:38:06.570Z,100476.80
2022-08-05T04:43:11.017Z,100478.20
2022-08-05T04:48:27.346Z,100482.20
2022-08-05T04:53:33.628Z,100473.60
2022-08-05T04:58:38.600Z,100469.40
2022-08-05T05:03:42.283Z,100468.80
2022-08-05T05:08:45.928Z,100472.00
2022-08-05T05:13:53.278Z,100478.20
2022-08-05T05:19:18.639Z,100480.80
2022-08-05T05:24:21.925Z,100482.80
2022-08-05T05:29:25.006Z,100487.00
2022-08-05T05:34:48.180Z,100486.00
2022-08-05T05:39:55.530Z,100488.60
2022-08-05T05:44:59.706Z,100488.20
2022-08-05T05:50:11.841Z,100485.80
2022-08-05T05:55:22.726Z,100489.00
2022-08-05T06:00:27.801Z,100489.00
2022-08-05T06:05:34.844Z,100489.20
2022-08-05T06:10:52.378Z,100499.00
2022-08-05T06:16:30.124Z,100499.40
2022-08-05T06:21:19.259Z,100494.20
2022-08-05T06:26:24.951Z,100488.40
2022-08-05T06:31:30.420Z,100489.60
2022-08-05T06:36:37.402Z,100484.40
2022-08-05T06:41:59.252Z,100488.40
2022-08-05T06:47:02.523Z,100488.80
2022-08-05T06:52:06.335Z,100488.60
2022-08-05T06:57:56.649Z,100483.00
2022-08-05T07:02:34.107Z,100482.20
2022-08-05T07:07:43.823Z,100480.60
2022-08-05T07:13:05.657Z,100484.20
2022-08-05T07:18:10.873Z,100477.20
2022-08-05T07:23:26.549Z,100476.60
2022-08-05T07:28:32.871Z,100484.00
2022-08-05T07:33:37.469Z,100484.00
2022-08-05T07:38:43.432Z,100479.40
2022-08-05T07:43:48.524Z,100478.60
2022-08-05T07:49:02.069Z,100474.40
2022-08-05T07:54:09.966Z,100473.60
2022-08-05T07:59:13.422Z,100475.40
2022-08-05T08:04:17.535Z,100475.40
2022-08-05T08:09:37.705Z,100476.60
2022-08-05T08:14:42.103Z,100475.80
2022-08-05T08:20:22.791Z,100471.00
2022-08-05T08:25:15.859Z,100467.00
2022-08-05T08:30:29.766Z,100455.20
2022-08-05T08:35:40.997Z,100464.00
2022-08-05T08:40:51.526Z,100460.60
2022-08-05T08:45:58.563Z,100457.20
2022-08-05T08:51:23.252Z,100454.00
2022-08-05T08:56:28.192Z,100450.80
2022-08-05T09:01:32.690Z,100444.20
2022-08-05T09:06:36.318Z,100434.80
2022-08-05T09:11:52.808Z,100434.00
2022-08-05T09:17:05.220Z,100430.20
2022-08-05T09:22:22.562Z,100429.40
2022-08-05T09:28:05.496Z,100432.80
2022-08-05T09:33:05.159Z,100417.60
2022-08-05T09:38:16.935Z,100422.60
2022-08-05T09:43:40.588Z,100423.80
2022-08-05T09:49:06.582Z,100424.80
2022-08-05T09:54:09.317Z,100409.80
2022-08-05T09:59:17.121Z,100407.00
2022-08-05T10:04:29.216Z,100409.60
2022-08-05T10:09:45.015Z,100400.60
2022-08-05T10:14:49.159Z,100389.20
2022-08-05T10:20:03.065Z,100389.20
2022-08-05T10:25:08.354Z,100387.20
2022-08-05T10:31:20.588Z,100385.40
2022-08-05T10:35:43.875Z,100368.00
2022-08-05T10:40:52.314Z,100369.00
2022-08-05T10:46:07.083Z,100363.00
2022-08-05T10:51:22.506Z,100362.00
2022-08-05T10:56:30.433Z,100359.00
2022-08-05T11:01:55.336Z,100356.20
2022-08-05T11:07:12.111Z,100350.60
2022-08-05T11:12:54.199Z,100354.60
2022-08-05T11:18:15.463Z,100343.20
2022-08-05T11:24:02.795Z,100336.60
2022-08-05T11:29:13.045Z,100325.80
2022-08-05T11:34:37.988Z,100330.80
2022-08-05T11:40:00.376Z,100327.20
2022-08-05T11:45:27.062Z,100320.00
2022-08-05T11:50:39.519Z,100309.20
2022-08-05T11:56:01.462Z,100303.80
2022-08-05T12:01:25.116Z,100312.40
2022-08-05T12:06:29.715Z,100312.20
2022-08-05T12:11:40.479Z,100304.40
2022-08-05T12:16:47.835Z,100305.60
2022-08-05T12:21:51.488Z,100312.60
2022-08-05T12:27:09.958Z,100300.60
2022-08-05T12:32:24.850Z,100292.00
2022-08-05T12:37:31.932Z,100285.40
2022-08-05T12:42:40.265Z,100281.60
2022-08-05T12:48:01.724Z,100284.20
2022-08-05T12:53:18.947Z,100287.00
2022-08-05T12:58:50.632Z,100285.20
2022-08-05T13:03:49.249Z,100289.20
2022-08-05T13:08:55.115Z,100287.00
2022-08-05T13:14:06.133Z,100277.60
2022-08-05T13:19:16.099Z,100269.80
2022-08-05T13:24:27.751Z,100275.80
2022-08-05T13:30:31.567Z,100263.80
2022-08-05T13:35:10.063Z,100256.20
2022-08-05T13:40:27.473Z,100265.40
2022-08-05T13:45:43.054Z,100253.80
2022-08-05T13:50:46.642Z,100242.00
2022-08-05T13:56:00.277Z,100231.20
2022-08-05T14:01:06.085Z,100227.80
2022-08-05T14:06:26.849Z,100227.80
2022-08-05T14:11:31.280Z,100219.00
2022-08-05T14:16:34.842Z,100222.60
2022-08-05T14:22:09.279Z,100221.20
2022-08-05T14:27:17.411Z,100214.80
2022-08-05T14:32:26.801Z,100213.60
2022-08-05T14:37:48.045Z,100219.60
2022-08-05T14:42:53.535Z,100212.40
2022-08-05T14:48:05.308Z,100212.80
2022-08-05T14:53:12.477Z,100215.20
2022-08-05T14:58:17.740Z,100208.60
2022-08-05T15:03:23.095Z,100207.80
2022-08-05T15:08:58.055Z,100210.80
2022-08-05T15:13:50.780Z,100206.80
2022-08-05T15:18:54.401Z,100208.80
2022-08-05T15:23:58.235Z,100206.40
2022-08-05T15:29:02.388Z,100209.40
2022-08-05T15:34:32.320Z,100200.80
2022-08-05T15:40:41.296Z,100194.60
2022-08-05T15:44:55.514Z,100196.40
2022-08-05T15:49:59.481Z,100195.40
2022-08-05T15:55:03.862Z,100200.80
2022-08-05T16:00:10.099Z,100196.80
2022-08-05T16:05:15.025Z,100198.60
2022-08-05T16:10:23.346Z,100206.80
2022-08-05T16:15:32.288Z,100208.60
2022-08-05T16:20:35.893Z,100205.80
2022-08-05T16:25:40.213Z,100200.80
2022-08-05T16:30:44.641Z,100193.80
2022-08-05T16:35:52.815Z,100188.20
2022-08-05T16:41:01.368Z,100183.40
2022-08-05T16:46:23.441Z,100182.60
2022-08-05T16:51:31.027Z,100180.20
2022-08-05T16:56:52.145Z,100176.00
2022-08-05T17:01:56.432Z,100172.60
2022-08-05T17:07:01.579Z,100167.80
2022-08-05T17:12:06.699Z,100167.80
2022-08-05T17:17:14.934Z,100168.80
2022-08-05T17:22:24.766Z,100159.40
2022-08-05T17:27:43.645Z,100162.60
2022-08-05T17:32:49.560Z,100157.20
2022-08-05T17:38:04.700Z,100152.00
2022-08-05T17:43:10.161Z,100156.20
2022-08-05T17:48:13.381Z,100155.80
2022-08-05T17:53:19.117Z,100161.00
2022-08-05T17:58:32.477Z,100162.80
2022-08-05T18:04:04.019Z,100164.60
2022-08-05T18:08:59.491Z,100167.00
2022-08-05T18:14:07.572Z,100168.00
2022-08-05T18:19:16.946Z,100175.80
2022-08-05T18:24:20.926Z,100177.20
2022-08-05T18:29:40.799Z,100176.40
2022-08-05T18:34:44.299Z,100181.80
2022-08-05T18:40:34.425Z,100182.40
2022-08-05T18:45:12.397Z,100177.80
2022-08-05T18:50:42.207Z,100182.80
2022-08-05T18:55:49.712Z,100179.00
2022-08-05T19:00:52.934Z,100177.40
2022-08-05T19:06:11.089Z,100179.40
2022-08-05T19:11:27.971Z,100177.60
2022-08-05T19:16:46.880Z,100174.80
2022-08-05T19:21:51.691Z,100169.60
2022-08-05T19:26:55.830Z,100166.60
2022-08-05T19:32:00.903Z,100166.00
2022-08-05T19:37:05.230Z,100166.60
2022-08-05T19:42:09.266Z,100162.00
2022-08-05T19:47:20.056Z,100163.20
2022-08-05T19:52:31.814Z,100160.60
2022-08-05T19:57:49.202Z,100163.60
2022-08-05T20:02:59.110Z,100170.20
2022-08-05T20:08:02.201Z,100160.00
2022-08-05T20:13:05.335Z,100163.80
2022-08-05T20:18:33.424Z,100160.20
2022-08-05T20:23:39.780Z,100154.40
2022-08-05T20:29:26.855Z,100150.80
2022-08-05T20:34:45.243Z,100162.20
2022-08-05T20:39:51.517Z,100172.40
2022-08-05T20:44:54.976Z,100186.20
2022-08-05T20:49:58.132Z,100183.00
2022-08-05T20:55:55.378Z,100186.80
2022-08-05T21:00:49.807Z,100182.00
2022-08-05T21:05:54.251Z,100185.80
2022-08-05T21:10:58.796Z,100184.40
2022-08-05T21:16:02.201Z,100185.80
2022-08-05T21:21:07.011Z,100182.60
2022-08-05T21:26:15.101Z,100183.60
2022-08-05T21:31:19.651Z,100183.60
2022-08-05T21:36:30.086Z,100189.40
2022-08-05T21:41:36.356Z,100188.40
2022-08-05T21:46:40.299Z,100199.00
2022-08-05T21:52:15.763Z,100242.80
2022-08-05T21:57:30.816Z,100226.80
2022-08-05T22:02:32.587Z,100243.00
2022-08-05T22:07:40.392Z,100251.80
2022-08-05T22:13:08.700Z,100253.20
2022-08-05T22:18:24.883Z,100253.60
2022-08-05T22:24:02.843Z,100245.20
2022-08-05T22:29:10.860Z,100259.00
2022-08-05T22:34:20.069Z,100275.00
2022-08-05T22:39:33.303Z,100287.00
2022-08-05T22:44:36.970Z,100289.00
2022-08-05T22:50:21.548Z,100293.40
2022-08-05T22:55:04.726Z,100266.20
